createdAt,value
2018-12-20T00:00:21.909Z,3.40
2018-12-20T00:01:57.009Z,3.40
2018-12-20T00:03:32.961Z,3.40
2018-12-20T00:05:08.413Z,3.30
2018-12-20T00:06:43.697Z,3.40
2018-12-20T00:08:19.114Z,3.40
2018-12-20T00:09:54.237Z,3.40
2018-12-20T00:11:29.341Z,3.40
2018-12-20T00:13:04.502Z,3.40
2018-12-20T00:14:39.647Z,3.40
2018-12-20T00:16:14.953Z,3.50
2018-12-20T00:17:51.907Z,3.50
2018-12-20T00:19:26.995Z,3.50
2018-12-20T00:21:02.015Z,3.60
2018-12-20T00:22:37.108Z,3.50
2018-12-20T00:24:12.079Z,3.60
2018-12-20T00:25:47.073Z,3.60
2018-12-20T00:27:22.119Z,3.70
2018-12-20T00:28:57.543Z,3.70
2018-12-20T00:30:39.029Z,3.70
2018-12-20T00:32:14.145Z,3.70
2018-12-20T00:33:49.359Z,3.70
2018-12-20T00:35:24.446Z,3.70
2018-12-20T00:36:59.607Z,3.70
2018-12-20T00:38:34.670Z,3.70
2018-12-20T00:40:09.784Z,3.70
2018-12-20T00:41:44.788Z,3.60
2018-12-20T00:43:20.737Z,3.60
2018-12-20T00:44:55.707Z,3.60
2018-12-20T00:46:30.663Z,3.70
2018-12-20T00:48:05.598Z,3.70
2018-12-20T00:49:40.578Z,3.70
2018-12-20T00:51:15.578Z,3.70
2018-12-20T00:52:50.561Z,3.70
2018-12-20T00:54:25.474Z,3.70
2018-12-20T00:56:00.466Z,3.80
2018-12-20T00:57:35.468Z,3.80
2018-12-20T00:59:10.368Z,3.80
2018-12-20T01:00:45.303Z,3.80
2018-12-20T01:02:26.978Z,3.80
2018-12-20T01:04:01.988Z,3.90
2018-12-20T01:05:37.007Z,3.90
2018-12-20T01:07:12.097Z,3.90
2018-12-20T01:08:47.382Z,3.90
2018-12-20T01:10:22.530Z,4.00
2018-12-20T01:11:57.595Z,4.00
2018-12-20T01:13:32.617Z,4.00
2018-12-20T01:15:07.740Z,4.00
2018-12-20T01:16:42.763Z,4.00
2018-12-20T01:18:17.779Z,4.00
2018-12-20T01:19:52.809Z,4.00
2018-12-20T01:21:27.991Z,4.00
2018-12-20T01:23:03.087Z,4.00
2018-12-20T01:24:38.247Z,4.00
2018-12-20T01:26:13.275Z,4.00
2018-12-20T01:27:48.272Z,4.00
2018-12-20T01:29:23.280Z,4.00
2018-12-20T01:30:58.383Z,4.00
2018-12-20T01:32:33.364Z,3.90
2018-12-20T01:34:08.622Z,3.90
2018-12-20T01:35:43.694Z,3.90
2018-12-20T01:37:18.761Z,3.90
2018-12-20T01:38:53.897Z,3.90
2018-12-20T01:40:28.910Z,3.90
2018-12-20T01:42:04.002Z,3.90
2018-12-20T01:43:39.011Z,3.90
2018-12-20T01:45:14.096Z,3.80
2018-12-20T01:46:49.131Z,3.80
2018-12-20T01:48:24.073Z,3.80
2018-12-20T01:49:59.111Z,3.80
2018-12-20T01:51:34.661Z,3.80
2018-12-20T01:53:09.694Z,3.80
2018-12-20T01:54:44.717Z,3.80
2018-12-20T01:56:20.074Z,3.80
2018-12-20T01:57:55.129Z,3.80
2018-12-20T01:59:30.114Z,3.70
2018-12-20T02:01:05.149Z,3.80
2018-12-20T02:02:40.068Z,3.70
2018-12-20T02:04:15.100Z,3.70
2018-12-20T02:05:50.019Z,3.70
2018-12-20T02:07:25.008Z,3.80
2018-12-20T02:08:59.991Z,3.80
2018-12-20T02:10:34.873Z,3.70
2018-12-20T02:12:09.799Z,3.80
2018-12-20T02:13:44.957Z,3.80
2018-12-20T02:15:19.890Z,3.70
2018-12-20T02:16:54.999Z,3.70
2018-12-20T02:18:30.324Z,3.80
2018-12-20T02:20:05.557Z,3.80
2018-12-20T02:21:40.635Z,3.80
2018-12-20T02:23:15.671Z,3.80
2018-12-20T02:24:50.652Z,3.80
2018-12-20T02:26:25.584Z,3.80
2018-12-20T02:28:00.577Z,3.80
2018-12-20T02:29:35.657Z,3.80
2018-12-20T02:31:10.863Z,3.80
2018-12-20T02:32:45.844Z,3.80
2018-12-20T02:34:20.921Z,3.70
2018-12-20T02:35:55.848Z,3.70
2018-12-20T02:37:30.782Z,3.80
2018-12-20T02:39:08.052Z,3.80
2018-12-20T02:40:43.055Z,3.80
2018-12-20T02:42:18.506Z,3.80
2018-12-20T02:43:53.662Z,3.80
2018-12-20T02:45:28.638Z,3.80
2018-12-20T02:47:03.961Z,3.80
2018-12-20T02:48:39.061Z,3.80
2018-12-20T02:50:14.250Z,3.80
2018-12-20T02:51:49.190Z,3.80
2018-12-20T02:53:24.330Z,3.80
2018-12-20T02:54:59.636Z,3.80
2018-12-20T02:56:34.818Z,3.90
2018-12-20T02:58:09.842Z,3.90
2018-12-20T02:59:44.829Z,3.90
2018-12-20T03:01:19.726Z,3.90
2018-12-20T03:02:54.625Z,3.90
2018-12-20T03:04:29.786Z,4.00
2018-12-20T03:06:04.998Z,4.00
2018-12-20T03:07:40.018Z,4.00
2018-12-20T03:09:15.136Z,4.00
2018-12-20T03:10:50.115Z,4.00
2018-12-20T03:12:25.067Z,4.00
2018-12-20T03:14:00.320Z,4.00
2018-12-20T03:15:35.365Z,4.00
2018-12-20T03:17:10.633Z,4.10
2018-12-20T03:18:45.686Z,4.10
2018-12-20T03:20:20.603Z,4.10
2018-12-20T03:21:55.734Z,4.10
2018-12-20T03:23:30.840Z,4.10
2018-12-20T03:25:06.231Z,4.10
2018-12-20T03:26:41.377Z,4.10
2018-12-20T03:28:16.471Z,4.10
2018-12-20T03:29:51.572Z,4.10
2018-12-20T03:31:26.574Z,4.10
2018-12-20T03:33:01.848Z,4.10
2018-12-20T03:34:36.907Z,4.10
2018-12-20T03:36:12.122Z,4.10
2018-12-20T03:37:47.343Z,4.20
2018-12-20T03:39:22.586Z,4.20
2018-12-20T03:41:04.327Z,4.20
2018-12-20T03:42:39.578Z,4.20
2018-12-20T03:44:21.399Z,4.20
2018-12-20T03:45:56.591Z,4.20
2018-12-20T03:47:31.894Z,4.20
2018-12-20T03:49:06.895Z,4.20
2018-12-20T03:50:41.934Z,4.20
2018-12-20T03:52:17.058Z,4.20
2018-12-20T03:53:52.062Z,4.20
2018-12-20T03:55:27.336Z,4.20
2018-12-20T03:57:02.376Z,4.20
2018-12-20T03:58:43.980Z,4.20
2018-12-20T04:00:19.097Z,4.20
2018-12-20T04:01:54.036Z,4.20
2018-12-20T04:03:29.162Z,4.20
2018-12-20T04:05:04.702Z,4.20
2018-12-20T04:06:39.990Z,4.20
2018-12-20T04:08:15.490Z,4.20
2018-12-20T04:09:51.017Z,4.20
2018-12-20T04:11:25.956Z,4.20
2018-12-20T04:13:00.958Z,4.20
2018-12-20T04:14:36.268Z,4.20
2018-12-20T04:16:11.496Z,4.20
2018-12-20T04:17:46.625Z,4.20
2018-12-20T04:19:21.730Z,4.20
2018-12-20T04:20:56.932Z,4.20
2018-12-20T04:22:31.863Z,4.30
2018-12-20T04:24:06.907Z,4.20
2018-12-20T04:25:41.895Z,4.30
2018-12-20T04:27:16.844Z,4.30
2018-12-20T04:28:51.782Z,4.30
2018-12-20T04:30:26.729Z,4.30
2018-12-20T04:32:01.706Z,4.30
2018-12-20T04:33:36.650Z,4.30
2018-12-20T04:35:11.663Z,4.30
2018-12-20T04:36:46.654Z,4.30
2018-12-20T04:38:21.586Z,4.30
2018-12-20T04:39:56.522Z,4.30
2018-12-20T04:41:31.584Z,4.30
2018-12-20T04:43:06.918Z,4.30
2018-12-20T04:44:42.835Z,4.30
2018-12-20T04:46:17.979Z,4.30
2018-12-20T04:47:52.971Z,4.30
2018-12-20T04:49:28.167Z,4.30
2018-12-20T04:51:03.435Z,4.30
2018-12-20T04:52:38.594Z,4.30
2018-12-20T04:54:13.488Z,4.40
2018-12-20T04:55:48.592Z,4.40
2018-12-20T04:57:23.719Z,4.40
2018-12-20T04:58:58.819Z,4.40
2018-12-20T05:00:34.078Z,4.40
2018-12-20T05:02:09.961Z,4.40
2018-12-20T05:03:45.329Z,4.40
2018-12-20T05:05:21.368Z,4.40
2018-12-20T05:06:56.833Z,4.40
2018-12-20T05:08:32.031Z,4.40
2018-12-20T05:10:07.509Z,4.50
2018-12-20T05:11:42.831Z,4.50
2018-12-20T05:13:18.934Z,4.50
2018-12-20T05:14:54.218Z,4.50
2018-12-20T05:16:29.356Z,4.50
2018-12-20T05:18:05.295Z,4.50
2018-12-20T05:19:40.396Z,4.50
2018-12-20T05:21:15.846Z,4.50
2018-12-20T05:22:51.046Z,4.50
2018-12-20T05:24:26.623Z,4.50
2018-12-20T05:26:01.651Z,4.50
2018-12-20T05:27:36.632Z,4.60
2018-12-20T05:29:11.644Z,4.60
2018-12-20T05:30:47.016Z,4.60
2018-12-20T05:32:22.315Z,4.50
2018-12-20T05:33:57.281Z,4.50
2018-12-20T05:35:32.290Z,4.50
2018-12-20T05:37:07.451Z,4.50
2018-12-20T05:38:42.493Z,4.50
2018-12-20T05:40:17.422Z,4.50
2018-12-20T05:41:52.859Z,4.50
2018-12-20T05:43:27.845Z,4.60
2018-12-20T05:45:02.976Z,4.50
2018-12-20T05:46:37.884Z,4.60
2018-12-20T05:48:14.124Z,4.50
2018-12-20T05:49:49.419Z,4.50
2018-12-20T05:51:24.554Z,4.50
2018-12-20T05:52:59.569Z,4.60
2018-12-20T05:54:34.724Z,4.50
2018-12-20T05:56:09.758Z,4.60
2018-12-20T05:57:44.723Z,4.50
2018-12-20T05:59:19.861Z,4.50
2018-12-20T06:00:55.084Z,4.50
2018-12-20T06:02:30.116Z,4.50
2018-12-20T06:04:05.170Z,4.50
2018-12-20T06:05:40.211Z,4.50
2018-12-20T06:07:15.397Z,4.50
2018-12-20T06:08:50.517Z,4.50
2018-12-20T06:10:25.480Z,4.50
2018-12-20T06:12:00.459Z,4.50
2018-12-20T06:13:35.609Z,4.50
2018-12-20T06:15:10.762Z,4.50
2018-12-20T06:16:46.099Z,4.50
2018-12-20T06:18:21.059Z,4.50
2018-12-20T06:19:56.135Z,4.40
2018-12-20T06:21:31.166Z,4.40
2018-12-20T06:23:06.181Z,4.30
2018-12-20T06:24:41.137Z,4.30
2018-12-20T06:26:16.081Z,4.30
2018-12-20T06:27:50.981Z,4.30
2018-12-20T06:29:26.103Z,4.20
2018-12-20T06:31:01.212Z,4.10
2018-12-20T06:32:36.274Z,4.10
2018-12-20T06:34:11.172Z,4.00
2018-12-20T06:35:46.112Z,4.00
2018-12-20T06:37:21.167Z,3.90
2018-12-20T06:38:56.187Z,3.90
2018-12-20T06:40:31.290Z,3.80
2018-12-20T06:42:06.271Z,3.80
2018-12-20T06:43:41.163Z,3.80
2018-12-20T06:45:16.084Z,3.80
2018-12-20T06:46:51.370Z,3.80
2018-12-20T06:48:26.281Z,3.70
2018-12-20T06:50:01.293Z,3.70
2018-12-20T06:51:36.295Z,3.70
2018-12-20T06:53:11.223Z,3.70
2018-12-20T06:54:46.161Z,3.80
2018-12-20T06:56:21.083Z,3.80
2018-12-20T06:57:55.980Z,3.80
2018-12-20T06:59:31.000Z,3.90
2018-12-20T07:01:07.162Z,4.00
2018-12-20T07:02:42.109Z,4.10
2018-12-20T07:04:17.174Z,4.10
2018-12-20T07:05:52.171Z,4.20
2018-12-20T07:07:27.153Z,4.20
2018-12-20T07:09:02.066Z,4.20
2018-12-20T07:10:37.376Z,4.20
2018-12-20T07:12:12.334Z,4.20
2018-12-20T07:13:47.417Z,4.20
2018-12-20T07:15:22.659Z,4.10
2018-12-20T07:16:57.770Z,4.10
2018-12-20T07:18:32.710Z,4.20
2018-12-20T07:20:07.872Z,4.20
2018-12-20T07:21:43.048Z,4.20
2018-12-20T07:23:18.144Z,4.20
2018-12-20T07:24:53.105Z,4.30
2018-12-20T07:26:28.101Z,4.30
2018-12-20T07:28:04.571Z,4.30
2018-12-20T07:29:39.556Z,4.40
2018-12-20T07:31:14.538Z,4.40
2018-12-20T07:32:49.512Z,4.40
2018-12-20T07:34:24.464Z,4.30
2018-12-20T07:35:59.382Z,4.30
2018-12-20T07:37:34.570Z,4.30
2018-12-20T07:39:09.612Z,4.20
2018-12-20T07:40:44.551Z,4.20
2018-12-20T07:42:19.593Z,4.20
2018-12-20T07:43:54.538Z,4.20
2018-12-20T07:45:29.528Z,4.20
2018-12-20T07:47:04.486Z,4.10
2018-12-20T07:48:39.440Z,4.20
2018-12-20T07:50:14.450Z,4.10
2018-12-20T07:51:49.422Z,4.10
2018-12-20T07:53:24.461Z,4.10
2018-12-20T07:55:00.413Z,4.20
2018-12-20T07:56:35.824Z,4.20
2018-12-20T07:58:10.974Z,4.20
2018-12-20T07:59:46.084Z,4.20
2018-12-20T08:01:21.308Z,4.30
2018-12-20T08:02:56.256Z,4.30
2018-12-20T08:04:31.400Z,4.40
2018-12-20T08:06:06.598Z,4.40
2018-12-20T08:07:42.145Z,4.50
2018-12-20T08:09:17.617Z,4.50
2018-12-20T08:10:52.620Z,4.60
2018-12-20T08:12:27.951Z,4.60
2018-12-20T08:14:03.153Z,4.60
2018-12-20T08:15:38.131Z,4.70
2018-12-20T08:17:13.190Z,4.80
2018-12-20T08:18:48.135Z,4.80
2018-12-20T08:20:23.157Z,4.90
2018-12-20T08:21:58.310Z,4.90
2018-12-20T08:23:33.354Z,5.00
2018-12-20T08:25:08.307Z,5.00
2018-12-20T08:26:43.289Z,5.10
2018-12-20T08:28:18.361Z,5.20
2018-12-20T08:29:53.409Z,5.30
2018-12-20T08:31:31.016Z,5.40
2018-12-20T08:33:06.058Z,5.60
2018-12-20T08:34:43.011Z,5.70
2018-12-20T08:36:17.979Z,5.80
2018-12-20T08:37:52.957Z,5.90
2018-12-20T08:39:27.967Z,6.00
2018-12-20T08:41:02.918Z,6.00
2018-12-20T08:42:37.906Z,6.10
2018-12-20T08:44:13.048Z,6.10
2018-12-20T08:45:48.219Z,6.20
2018-12-20T08:47:23.208Z,6.20
2018-12-20T08:48:58.121Z,6.30
2018-12-20T08:50:33.069Z,6.40
2018-12-20T08:52:08.061Z,6.50
2018-12-20T08:53:43.106Z,6.60
2018-12-20T08:55:18.021Z,6.60
2018-12-20T08:56:52.980Z,6.70
2018-12-20T08:58:31.781Z,6.70
2018-12-20T09:00:08.617Z,6.80
2018-12-20T09:01:43.725Z,6.80
2018-12-20T09:03:18.777Z,6.80
2018-12-20T09:04:54.526Z,6.80
2018-12-20T09:06:30.176Z,6.80
2018-12-20T09:08:05.604Z,6.80
2018-12-20T09:09:40.613Z,6.80
2018-12-20T09:11:15.564Z,6.80
2018-12-20T09:12:50.501Z,6.70
2018-12-20T09:14:25.419Z,6.70
2018-12-20T09:16:00.418Z,6.70
2018-12-20T09:17:35.469Z,6.60
2018-12-20T09:19:10.527Z,6.60
2018-12-20T09:20:45.703Z,6.60
2018-12-20T09:22:20.741Z,6.50
2018-12-20T09:23:55.871Z,6.50
2018-12-20T09:25:30.829Z,6.50
2018-12-20T09:27:05.801Z,6.50
2018-12-20T09:28:41.942Z,6.50
2018-12-20T09:30:16.862Z,6.50
2018-12-20T09:31:51.840Z,6.50
2018-12-20T09:33:26.893Z,6.50
2018-12-20T09:35:01.935Z,6.50
2018-12-20T09:36:37.172Z,6.40
2018-12-20T09:38:12.151Z,6.40
2018-12-20T09:39:47.195Z,6.40
2018-12-20T09:41:22.116Z,6.40
2018-12-20T09:42:57.056Z,6.50
2018-12-20T09:44:32.107Z,6.50
2018-12-20T09:46:07.072Z,6.50
2018-12-20T09:47:47.320Z,6.50
2018-12-20T09:49:22.343Z,6.60
2018-12-20T09:50:57.266Z,6.60
2018-12-20T09:52:32.255Z,6.60
2018-12-20T09:54:07.330Z,6.70
2018-12-20T09:55:42.359Z,6.80
2018-12-20T09:57:17.268Z,6.80
2018-12-20T09:58:52.223Z,6.90
2018-12-20T10:00:27.348Z,6.90
2018-12-20T10:02:02.282Z,7.00
2018-12-20T10:03:37.190Z,7.10
2018-12-20T10:05:12.132Z,7.20
2018-12-20T10:06:47.060Z,7.20
2018-12-20T10:08:22.278Z,7.20
2018-12-20T10:09:57.380Z,7.20
2018-12-20T10:11:32.254Z,7.20
2018-12-20T10:13:07.173Z,7.20
2018-12-20T10:14:42.300Z,7.10
2018-12-20T10:16:17.268Z,7.20
2018-12-20T10:17:52.211Z,7.20
2018-12-20T10:19:28.321Z,7.20
2018-12-20T10:21:03.234Z,7.20
2018-12-20T10:22:38.247Z,7.20
2018-12-20T10:24:13.256Z,7.20
2018-12-20T10:25:48.261Z,7.30
2018-12-20T10:27:31.214Z,7.30
2018-12-20T10:29:01.150Z,7.30
2018-12-20T10:30:36.079Z,7.30
2018-12-20T10:32:11.124Z,7.40
2018-12-20T10:33:46.097Z,7.50
2018-12-20T10:35:21.174Z,7.50
2018-12-20T10:36:56.103Z,7.60
2018-12-20T10:38:31.147Z,7.60
2018-12-20T10:40:06.396Z,7.60
2018-12-20T10:41:43.238Z,7.70
2018-12-20T10:43:18.295Z,7.70
2018-12-20T10:44:53.250Z,7.80
2018-12-20T10:46:28.156Z,7.80
2018-12-20T10:48:03.874Z,7.90
2018-12-20T10:49:38.873Z,7.90
2018-12-20T10:51:13.822Z,7.90
2018-12-20T10:52:48.792Z,7.90
2018-12-20T10:54:23.776Z,7.90
2018-12-20T10:55:58.672Z,7.90
2018-12-20T10:57:33.763Z,7.80
2018-12-20T10:59:08.827Z,7.90
2018-12-20T11:00:49.184Z,7.80
2018-12-20T11:03:28.440Z,7.90
2018-12-20T11:05:07.737Z,7.90
2018-12-20T11:07:50.924Z,8.10
2018-12-20T11:09:31.517Z,8.10
2018-12-20T11:11:06.940Z,8.10
2018-12-20T11:12:50.651Z,8.00
2018-12-20T11:14:25.682Z,8.10
2018-12-20T11:16:00.607Z,8.00
2018-12-20T11:17:37.567Z,8.00
2018-12-20T11:19:12.793Z,7.90
2018-12-20T11:20:47.746Z,8.00
2018-12-20T11:22:22.639Z,8.00
2018-12-20T11:23:57.710Z,8.00
2018-12-20T11:25:32.851Z,7.90
2018-12-20T11:27:07.782Z,7.90
2018-12-20T11:28:42.730Z,7.90
2018-12-20T11:30:17.925Z,7.80
2018-12-20T11:31:52.818Z,7.80
2018-12-20T11:33:27.958Z,7.90
2018-12-20T11:35:03.111Z,7.90
2018-12-20T11:36:38.347Z,8.00
2018-12-20T11:38:13.297Z,8.00
2018-12-20T11:39:48.238Z,8.00
2018-12-20T11:41:23.304Z,8.00
2018-12-20T11:42:58.263Z,8.10
2018-12-20T11:44:33.244Z,8.10
2018-12-20T11:46:08.146Z,8.20
2018-12-20T11:47:46.096Z,8.30
2018-12-20T11:49:20.177Z,8.30
2018-12-20T11:50:55.139Z,8.20
2018-12-20T11:52:30.151Z,8.20
2018-12-20T11:54:06.207Z,8.10
2018-12-20T11:55:41.209Z,8.10
2018-12-20T11:57:16.266Z,8.10
2018-12-20T11:58:51.166Z,8.20
2018-12-20T12:00:26.252Z,8.10
2018-12-20T12:02:01.150Z,8.20
2018-12-20T12:03:36.231Z,8.20
2018-12-20T12:05:11.182Z,8.20
2018-12-20T12:06:46.363Z,8.10
2018-12-20T12:08:21.256Z,8.20
2018-12-20T12:09:56.181Z,8.10
2018-12-20T12:11:31.207Z,8.10
2018-12-20T12:13:06.142Z,8.10
2018-12-20T12:14:41.169Z,8.10
2018-12-20T12:16:17.234Z,8.10
2018-12-20T12:17:54.289Z,8.10
2018-12-20T12:19:29.203Z,8.10
2018-12-20T12:21:04.171Z,8.10
2018-12-20T12:22:39.230Z,8.10
2018-12-20T12:24:14.210Z,8.20
2018-12-20T12:25:49.136Z,8.20
2018-12-20T12:27:24.055Z,8.20
2018-12-20T12:28:59.015Z,8.20
2018-12-20T12:30:34.047Z,8.10
2018-12-20T12:32:09.076Z,8.10
2018-12-20T12:33:43.937Z,8.00
2018-12-20T12:35:18.895Z,8.00
2018-12-20T12:36:53.862Z,7.90
2018-12-20T12:38:28.736Z,8.00
2018-12-20T12:40:04.399Z,8.00
2018-12-20T12:41:39.253Z,8.00
2018-12-20T12:43:14.131Z,8.00
2018-12-20T12:44:49.009Z,8.10
2018-12-20T12:46:24.144Z,8.10
2018-12-20T12:48:03.611Z,8.10
2018-12-20T12:49:37.322Z,8.20
2018-12-20T12:51:12.301Z,8.10
2018-12-20T12:52:47.423Z,8.20
2018-12-20T12:54:22.285Z,8.20
2018-12-20T12:55:57.423Z,8.20
2018-12-20T12:57:32.289Z,8.20
2018-12-20T12:59:07.130Z,8.20
2018-12-20T13:00:42.102Z,8.20
2018-12-20T13:02:17.000Z,8.20
2018-12-20T13:03:52.149Z,8.20
2018-12-20T13:05:27.137Z,8.10
2018-12-20T13:07:01.992Z,8.10
2018-12-20T13:08:36.897Z,8.00
2018-12-20T13:10:11.918Z,8.00
2018-12-20T13:11:46.925Z,7.90
2018-12-20T13:13:21.897Z,7.90
2018-12-20T13:14:56.829Z,7.80
2018-12-20T13:16:32.157Z,7.80
2018-12-20T13:18:13.798Z,7.80
2018-12-20T13:19:44.051Z,7.80
2018-12-20T13:21:19.081Z,7.80
2018-12-20T13:22:54.199Z,7.80
2018-12-20T13:24:29.073Z,7.80
2018-12-20T13:26:04.172Z,7.90
2018-12-20T13:27:39.204Z,7.90
2018-12-20T13:29:14.052Z,7.90
2018-12-20T13:30:48.975Z,8.00
2018-12-20T13:32:23.848Z,8.00
2018-12-20T13:33:58.721Z,8.00
2018-12-20T13:35:34.740Z,8.00
2018-12-20T13:37:15.871Z,8.10
2018-12-20T13:38:48.012Z,8.10
2018-12-20T13:40:22.880Z,8.10
2018-12-20T13:41:58.045Z,8.10
2018-12-20T13:43:32.893Z,8.10
2018-12-20T13:45:07.985Z,8.10
2018-12-20T13:46:42.899Z,8.10
2018-12-20T13:48:22.214Z,8.10
2018-12-20T13:49:54.850Z,8.10
2018-12-20T13:51:29.772Z,8.10
2018-12-20T13:53:04.742Z,8.00
2018-12-20T13:54:39.603Z,8.00
2018-12-20T13:56:14.602Z,8.00
2018-12-20T13:57:49.458Z,8.00
2018-12-20T13:59:24.417Z,8.00
2018-12-20T14:00:59.387Z,8.00
2018-12-20T14:02:34.248Z,8.00
2018-12-20T14:04:09.204Z,7.90
2018-12-20T14:05:44.240Z,7.90
2018-12-20T14:07:19.154Z,7.90
2018-12-20T14:08:54.017Z,7.90
2018-12-20T14:10:28.901Z,7.90
2018-12-20T14:12:03.965Z,7.90
2018-12-20T14:13:38.817Z,7.90
2018-12-20T14:15:13.720Z,7.90
2018-12-20T14:16:48.611Z,7.90
2018-12-20T14:19:59.000Z,7.90
2018-12-20T14:21:34.593Z,7.90
2018-12-20T14:23:09.455Z,7.90
2018-12-20T14:24:44.346Z,7.90
2018-12-20T14:26:19.253Z,8.00
2018-12-20T14:27:54.204Z,7.90
2018-12-20T14:29:29.138Z,7.90
2018-12-20T14:31:04.120Z,7.90
2018-12-20T14:32:39.020Z,7.90
2018-12-20T14:34:13.896Z,7.90
2018-12-20T14:35:48.765Z,7.80
2018-12-20T14:37:23.691Z,7.80
2018-12-20T14:38:58.538Z,7.80
2018-12-20T14:40:33.404Z,7.70
2018-12-20T14:42:08.293Z,7.70
2018-12-20T14:43:43.244Z,7.60
2018-12-20T14:45:18.113Z,7.60
2018-12-20T14:46:53.002Z,7.60
2018-12-20T14:48:39.007Z,7.50
2018-12-20T14:50:09.314Z,7.50
2018-12-20T14:51:44.265Z,7.40
2018-12-20T14:53:19.292Z,7.40
2018-12-20T14:54:54.128Z,7.30
2018-12-20T14:56:29.052Z,7.30
2018-12-20T14:58:03.967Z,7.30
2018-12-20T14:59:38.829Z,7.30
2018-12-20T15:01:13.783Z,7.20
2018-12-20T15:02:48.817Z,7.20
2018-12-20T15:04:23.771Z,7.10
2018-12-20T15:05:59.174Z,7.10
2018-12-20T15:07:34.206Z,7.00
2018-12-20T15:09:09.104Z,7.00
2018-12-20T15:10:43.984Z,6.90
2018-12-20T15:12:18.896Z,6.80
2018-12-20T15:13:53.941Z,6.80
2018-12-20T15:15:28.808Z,6.70
2018-12-20T15:17:03.797Z,6.70
2018-12-20T15:18:38.841Z,6.70
2018-12-20T15:20:13.823Z,6.70
2018-12-20T15:21:48.971Z,6.70
2018-12-20T15:23:23.839Z,6.70
2018-12-20T15:24:58.718Z,6.70
2018-12-20T15:26:33.570Z,6.70
2018-12-20T15:28:08.530Z,6.70
2018-12-20T15:29:43.545Z,6.80
2018-12-20T15:31:19.513Z,6.80
2018-12-20T15:32:54.472Z,6.80
2018-12-20T15:34:29.346Z,6.80
2018-12-20T15:36:04.422Z,6.80
2018-12-20T15:37:39.336Z,6.80
2018-12-20T15:39:14.280Z,6.70
2018-12-20T15:40:49.265Z,6.80
2018-12-20T15:42:24.233Z,6.80
2018-12-20T15:43:59.191Z,6.80
2018-12-20T15:45:34.163Z,6.80
2018-12-20T15:47:09.165Z,6.80
2018-12-20T15:48:44.120Z,6.80
2018-12-20T15:50:20.048Z,6.80
2018-12-20T15:51:55.066Z,6.80
2018-12-20T15:53:29.956Z,6.80
2018-12-20T15:55:05.555Z,6.80
2018-12-20T15:56:40.633Z,6.80
2018-12-20T15:58:15.677Z,6.80
2018-12-20T15:59:50.611Z,6.80
2018-12-20T16:01:25.638Z,6.80
2018-12-20T16:03:00.874Z,6.80
2018-12-20T16:04:35.789Z,6.80
2018-12-20T16:06:10.875Z,6.70
2018-12-20T16:07:45.810Z,6.70
2018-12-20T16:09:20.720Z,6.60
2018-12-20T16:10:55.585Z,6.60
2018-12-20T16:12:30.635Z,6.60
2018-12-20T16:14:09.001Z,6.60
2018-12-20T16:15:44.188Z,6.50
2018-12-20T16:17:19.246Z,6.50
2018-12-20T16:18:54.173Z,6.40
2018-12-20T16:20:29.136Z,6.40
2018-12-20T16:22:04.743Z,6.40
2018-12-20T16:23:39.723Z,6.30
2018-12-20T16:25:14.587Z,6.30
2018-12-20T16:26:49.526Z,6.30
2018-12-20T16:28:24.416Z,6.20
2018-12-20T16:29:59.374Z,6.10
2018-12-20T16:31:34.268Z,6.10
2018-12-20T16:33:09.321Z,6.10
2018-12-20T16:34:44.299Z,6.10
2018-12-20T16:36:19.211Z,6.00
2018-12-20T16:37:54.171Z,6.00
2018-12-20T16:39:29.121Z,6.00
2018-12-20T16:41:03.964Z,6.00
2018-12-20T16:42:38.931Z,6.00
2018-12-20T16:44:13.829Z,6.10
2018-12-20T16:45:48.763Z,6.10
2018-12-20T16:47:23.652Z,6.10
2018-12-20T16:48:58.701Z,6.10
2018-12-20T16:50:34.072Z,6.10
2018-12-20T16:52:08.948Z,6.20
2018-12-20T16:53:43.974Z,6.20
2018-12-20T16:55:18.952Z,6.20
2018-12-20T16:56:53.807Z,6.20
2018-12-20T16:58:28.649Z,6.10
2018-12-20T17:00:04.292Z,6.10
2018-12-20T17:01:39.697Z,6.00
2018-12-20T17:03:14.677Z,6.00
2018-12-20T17:04:49.657Z,5.90
2018-12-20T17:06:24.547Z,5.90
2018-12-20T17:07:59.741Z,5.80
2018-12-20T17:09:34.634Z,5.80
2018-12-20T17:11:09.674Z,5.70
2018-12-20T17:12:45.235Z,5.70
2018-12-20T17:14:20.292Z,5.70
2018-12-20T17:15:55.185Z,5.70
2018-12-20T17:17:30.085Z,5.60
2018-12-20T17:19:05.310Z,5.60
2018-12-20T17:20:40.274Z,5.60
2018-12-20T17:22:15.140Z,5.60
2018-12-20T17:23:50.032Z,5.60
2018-12-20T17:25:24.984Z,5.60
2018-12-20T17:26:59.873Z,5.60
2018-12-20T17:28:34.849Z,5.60
2018-12-20T17:30:10.445Z,5.60
2018-12-20T17:31:45.545Z,5.50
2018-12-20T17:33:20.620Z,5.60
2018-12-20T17:34:55.599Z,5.60
2018-12-20T17:36:30.935Z,5.60
2018-12-20T17:38:05.929Z,5.60
2018-12-20T17:39:40.916Z,5.60
2018-12-20T17:41:15.882Z,5.60
2018-12-20T17:42:50.949Z,5.50
2018-12-20T17:44:25.954Z,5.50
2018-12-20T17:46:00.834Z,5.50
2018-12-20T17:47:35.957Z,5.50
2018-12-20T17:49:10.864Z,5.40
2018-12-20T17:50:45.972Z,5.40
2018-12-20T17:52:20.952Z,5.40
2018-12-20T17:53:55.934Z,5.40
2018-12-20T17:55:30.879Z,5.40
2018-12-20T17:57:05.821Z,5.40
2018-12-20T17:58:40.857Z,5.50
2018-12-20T18:00:15.888Z,5.50
2018-12-20T18:01:50.902Z,5.50
2018-12-20T18:03:25.844Z,5.50
2018-12-20T18:05:06.867Z,5.60
2018-12-20T18:06:37.811Z,5.60
2018-12-20T18:08:12.648Z,5.60
2018-12-20T18:09:47.588Z,5.60
2018-12-20T18:11:22.615Z,5.70
2018-12-20T18:12:57.647Z,5.70
2018-12-20T18:14:32.673Z,5.70
2018-12-20T18:16:07.797Z,5.80
2018-12-20T18:17:42.868Z,5.80
2018-12-20T18:19:17.761Z,5.80
2018-12-20T18:20:53.813Z,5.90
2018-12-20T18:22:29.734Z,6.00
2018-12-20T18:24:04.803Z,6.00
2018-12-20T18:25:39.837Z,6.10
2018-12-20T18:27:14.896Z,6.10
2018-12-20T18:28:49.768Z,6.20
2018-12-20T18:30:24.733Z,6.20
2018-12-20T18:31:59.669Z,6.20
2018-12-20T18:33:34.655Z,6.30
2018-12-20T18:35:09.829Z,6.30
2018-12-20T18:36:44.918Z,6.30
2018-12-20T18:38:20.081Z,6.30
2018-12-20T18:39:55.148Z,6.30
2018-12-20T18:41:30.068Z,6.40
2018-12-20T18:43:05.099Z,6.40
2018-12-20T18:44:40.085Z,6.40
2018-12-20T18:46:14.965Z,6.40
2018-12-20T18:47:49.955Z,6.40
2018-12-20T18:49:24.877Z,6.40
2018-12-20T18:50:59.776Z,6.40
2018-12-20T18:52:34.750Z,6.40
2018-12-20T18:54:09.668Z,6.40
2018-12-20T18:55:44.700Z,6.30
2018-12-20T18:57:19.780Z,6.30
2018-12-20T18:58:54.653Z,6.30
2018-12-20T19:00:29.890Z,6.30
2018-12-20T19:02:05.081Z,6.30
2018-12-20T19:03:43.748Z,6.40
2018-12-20T19:05:18.803Z,6.40
2018-12-20T19:06:53.971Z,6.40
2018-12-20T19:08:28.899Z,6.40
2018-12-20T19:10:04.124Z,6.40
2018-12-20T19:11:39.131Z,6.50
2018-12-20T19:13:14.013Z,6.50
2018-12-20T19:14:49.071Z,6.60
2018-12-20T19:16:24.140Z,6.60
2018-12-20T19:17:59.168Z,6.60
2018-12-20T19:19:34.062Z,6.60
2018-12-20T19:21:08.966Z,6.60
2018-12-20T19:22:44.113Z,6.60
2018-12-20T19:24:19.021Z,6.50
2018-12-20T19:25:53.965Z,6.60
2018-12-20T19:27:28.827Z,6.60
2018-12-20T19:29:03.827Z,6.60
2018-12-20T19:30:38.924Z,6.60
2018-12-20T19:32:13.972Z,6.60
2018-12-20T19:33:48.850Z,6.60
2018-12-20T19:35:23.899Z,6.60
2018-12-20T19:36:58.863Z,6.60
2018-12-20T19:38:33.853Z,6.60
2018-12-20T19:40:10.924Z,6.50
2018-12-20T19:41:46.012Z,6.50
2018-12-20T19:43:21.036Z,6.50
2018-12-20T19:44:56.724Z,6.50
2018-12-20T19:46:31.889Z,6.50
2018-12-20T19:48:06.859Z,6.40
2018-12-20T19:49:41.723Z,6.40
2018-12-20T19:51:17.750Z,6.40
2018-12-20T19:52:52.710Z,6.30
2018-12-20T19:54:27.716Z,6.30
2018-12-20T19:56:02.628Z,6.30
2018-12-20T19:57:37.643Z,6.20
2018-12-20T19:59:12.812Z,6.20
2018-12-20T20:00:47.735Z,6.10
2018-12-20T20:02:22.727Z,6.10
2018-12-20T20:03:57.939Z,6.00
2018-12-20T20:05:32.848Z,6.00
2018-12-20T20:07:07.772Z,6.10
2018-12-20T20:08:43.863Z,6.00
2018-12-20T20:10:18.713Z,6.00
2018-12-20T20:11:53.746Z,6.00
2018-12-20T20:13:30.907Z,6.00
2018-12-20T20:15:16.069Z,6.00
2018-12-20T20:16:50.728Z,6.00
2018-12-20T20:18:21.419Z,6.10
2018-12-20T20:19:59.855Z,6.20
2018-12-20T20:21:33.249Z,6.20
2018-12-20T20:23:08.357Z,6.30
2018-12-20T20:24:43.218Z,6.30
2018-12-20T20:26:18.129Z,6.40
2018-12-20T20:27:53.079Z,6.30
2018-12-20T20:29:28.035Z,6.30
2018-12-20T20:31:03.034Z,6.30
2018-12-20T20:32:38.780Z,6.30
2018-12-20T20:34:13.680Z,6.20
2018-12-20T20:35:48.576Z,6.20
2018-12-20T20:37:23.561Z,6.20
2018-12-20T20:39:02.124Z,6.20
2018-12-20T20:40:35.970Z,6.20
2018-12-20T20:42:10.948Z,6.20
2018-12-20T20:43:45.893Z,6.20
2018-12-20T20:45:20.852Z,6.20
2018-12-20T20:46:55.745Z,6.20
2018-12-20T20:48:30.709Z,6.20
2018-12-20T20:50:07.174Z,6.20
2018-12-20T20:51:42.126Z,6.20
2018-12-20T20:53:17.111Z,6.10
2018-12-20T20:54:52.038Z,6.10
2018-12-20T20:56:26.968Z,6.00
2018-12-20T20:58:01.960Z,6.00
2018-12-20T20:59:36.824Z,5.90
2018-12-20T21:01:11.745Z,5.90
2018-12-20T21:02:46.893Z,5.80
2018-12-20T21:04:21.900Z,5.80
2018-12-20T21:05:56.789Z,5.70
2018-12-20T21:07:31.856Z,5.70
2018-12-20T21:09:07.984Z,5.70
2018-12-20T21:10:42.941Z,5.70